Time;durP1;ratioP1;P1;durP2;ratioP2;P2;SDS_P1;SDS_P2;PMS_P1;PMS_P2;Temp;Humidity;BMP_temperature;BMP_pressure;BME280_temperature;BME280_humidity;BME280_pressure;Samples;Min_cycle;Max_cycle;Signal;HPM_P1;HPM_P2
2022/09/11 00:00:55;;;;;;;6.23;4.07;;;13.70;75.20;;;;;;4983335;28;20548;-52
2022/09/11 00:03:23;;;;;;;4.90;4.30;;;13.70;77.20;;;;;;4990759;28;20492;-52
2022/09/11 00:05:52;;;;;;;5.50;3.93;;;13.70;77.70;;;;;;4988156;28;20465;-52
2022/09/11 00:08:20;;;;;;;4.30;3.90;;;13.70;77.20;;;;;;4990325;28;20445;-53
2022/09/11 00:10:48;;;;;;;4.43;3.97;;;13.70;77.90;;;;;;4991363;28;20476;-53
2022/09/11 00:13:18;;;;;;;4.30;3.90;;;13.70;77.90;;;;;;4987707;28;20488;-53
2022/09/11 00:15:45;;;;;;;6.37;3.90;;;13.70;75.40;;;;;;4987020;28;20470;-52
2022/09/11 00:18:16;;;;;;;4.40;4.00;;;13.60;74.80;;;;;;4980096;28;20576;-52
2022/09/11 00:20:48;;;;;;;4.43;3.80;;;13.60;75.30;;;;;;4981506;28;20507;-51
2022/09/11 00:23:16;;;;;;;3.80;3.50;;;13.60;75.30;;;;;;4983668;28;20488;-51
2022/09/11 00:25:45;;;;;;;5.97;3.90;;;13.60;75.70;;;;;;4993046;28;20460;-52
2022/09/11 00:28:14;;;;;;;3.87;3.57;;;13.50;73.80;;;;;;4984387;28;20830;-51
2022/09/11 00:30:41;;;;;;;4.93;3.53;;;13.60;66.80;;;;;;4989629;28;20461;-51
2022/09/11 00:33:08;;;;;;;7.27;3.80;;;13.60;70.80;;;;;;4986888;28;20480;-50
2022/09/11 00:35:34;;;;;;;6.77;4.03;;;13.50;74.50;;;;;;4986539;28;20466;-51
2022/09/11 00:38:01;;;;;;;4.60;3.90;;;13.50;73.70;;;;;;4988212;28;20543;-51
2022/09/11 00:40:29;;;;;;;8.67;3.70;;;13.50;77.80;;;;;;4989336;28;20546;-51
2022/09/11 00:42:56;;;;;;;6.57;3.83;;;13.50;80.90;;;;;;4979242;28;21011;-50
2022/09/11 00:45:25;;;;;;;4.53;3.77;;;13.40;76.20;;;;;;4985977;28;20469;-51
2022/09/11 00:47:53;;;;;;;4.97;3.97;;;13.40;76.30;;;;;;4984063;28;20460;-51
2022/09/11 00:50:24;;;;;;;5.70;3.87;;;13.40;78.10;;;;;;4983811;28;20470;-51
2022/09/11 00:52:56;;;;;;;3.97;3.67;;;13.40;78.00;;;;;;4985687;28;20485;-52
2022/09/11 00:55:26;;;;;;;3.97;3.20;;;13.40;75.00;;;;;;4982254;28;20515;-51
2022/09/11 00:57:58;;;;;;;3.80;3.40;;;13.40;68.20;;;;;;4978749;28;20581;-51
2022/09/11 01:00:25;;;;;;;4.40;3.30;;;13.50;66.30;;;;;;4981002;28;20445;-51
2022/09/11 01:02:54;;;;;;;3.50;3.30;;;13.50;62.80;;;;;;5020645;23;21023;-53
2022/09/11 01:05:22;;;;;;;2.80;2.60;;;13.50;62.00;;;;;;5008129;28;20464;-52
2022/09/11 01:07:53;;;;;;;3.17;2.97;;;13.50;62.30;;;;;;5012445;28;20463;-53
2022/09/11 01:10:23;;;;;;;5.17;3.40;;;13.50;67.10;;;;;;5011132;28;20884;-54
2022/09/11 01:13:00;;;;;;;5.57;3.50;;;13.40;66.80;;;;;;4994736;28;21044;-53
2022/09/11 01:15:35;;;;;;;3.60;3.20;;;13.50;68.70;;;;;;4988412;28;20526;-52
2022/09/11 01:18:12;;;;;;;3.57;3.07;;;13.40;72.90;;;;;;4988230;28;20899;-54
2022/09/11 01:21:34;;;;;;;6.33;3.40;;;13.40;69.60;;;;;;4981433;28;21229;-53
2022/09/11 01:24:11;;;;;;;2.90;2.80;;;13.30;67.60;;;;;;4979546;28;21140;-52
2022/09/11 01:26:48;;;;;;;7.10;3.30;;;13.30;69.10;;;;;;4988749;28;20522;-52
2022/09/11 01:29:21;;;;;;;4.30;3.13;;;13.30;67.40;;;;;;4990076;28;20579;-53
2022/09/11 01:31:56;;;;;;;5.33;3.13;;;13.30;65.90;;;;;;4985123;28;20489;-54
2022/09/11 01:34:30;;;;;;;5.63;3.37;;;13.30;64.10;;;;;;4983518;28;20522;-55
2022/09/11 01:37:00;;;;;;;3.30;3.10;;;13.30;61.20;;;;;;4983844;28;20456;-54
2022/09/11 01:39:33;;;;;;;3.13;2.80;;;13.30;59.70;;;;;;4991007;28;20464;-53
2022/09/11 01:42:04;;;;;;;4.60;3.43;;;13.30;61.20;;;;;;4984179;28;20504;-52
2022/09/11 01:44:35;;;;;;;3.73;3.33;;;13.20;63.10;;;;;;4987383;28;20472;-54
2022/09/11 01:47:04;;;;;;;7.07;3.37;;;13.10;58.70;;;;;;4985387;28;20465;-52
2022/09/11 01:49:35;;;;;;;2.70;2.50;;;13.10;65.10;;;;;;4987898;28;20469;-54
2022/09/11 01:52:05;;;;;;;2.90;2.70;;;13.10;67.00;;;;;;4986385;28;20986;-52
2022/09/11 01:54:35;;;;;;;3.17;2.87;;;13.10;68.60;;;;;;4983168;28;20810;-54
2022/09/11 01:57:06;;;;;;;3.13;2.83;;;13.10;64.50;;;;;;4984267;28;20542;-53
2022/09/11 01:59:39;;;;;;;3.37;3.07;;;13.10;63.40;;;;;;4989078;28;20522;-53
2022/09/11 02:02:10;;;;;;;3.20;2.80;;;13.00;59.80;;;;;;4981853;28;20531;-53
2022/09/11 02:04:41;;;;;;;3.87;3.13;;;13.00;64.40;;;;;;4984695;28;20520;-52
2022/09/11 02:07:11;;;;;;;3.20;2.90;;;12.90;68.40;;;;;;4992074;28;20610;-53
2022/09/11 02:09:41;;;;;;;3.40;2.70;;;12.90;73.00;;;;;;4994546;28;20463;-54
2022/09/11 02:12:11;;;;;;;2.97;2.83;;;12.90;74.00;;;;;;4994575;28;20994;-53
2022/09/11 02:14:41;;;;;;;7.10;2.60;;;12.80;76.70;;;;;;4988609;28;20950;-53
2022/09/11 02:17:17;;;;;;;4.20;2.83;;;12.80;78.40;;;;;;4992895;28;20468;-54
2022/09/11 02:19:44;;;;;;;3.13;2.80;;;12.80;77.40;;;;;;4992635;28;20538;-52
2022/09/11 02:22:10;;;;;;;4.27;3.10;;;12.80;73.40;;;;;;4993356;28;20488;-53
2022/09/11 02:24:37;;;;;;;7.37;3.17;;;12.80;75.20;;;;;;4983391;28;20461;-53
2022/09/11 02:27:07;;;;;;;3.33;2.57;;;12.80;77.10;;;;;;4990836;28;20915;-52
2022/09/11 02:29:34;;;;;;;3.20;2.90;;;12.90;74.50;;;;;;5001838;28;20460;-52
2022/09/11 02:32:03;;;;;;;3.43;3.10;;;12.90;73.30;;;;;;4994938;28;20484;-52
2022/09/11 02:34:33;;;;;;;3.90;3.23;;;12.90;72.80;;;;;;4986561;28;20913;-52
2022/09/11 02:37:10;;;;;;;3.60;3.30;;;12.90;65.70;;;;;;4992673;28;20972;-54
2022/09/11 02:40:00;;;;;;;6.07;3.40;;;13.00;58.50;;;;;;4992515;28;20538;-54
2022/09/11 02:42:36;;;;;;;4.00;3.57;;;13.10;50.40;;;;;;4994671;28;20836;-54
2022/09/11 02:45:14;;;;;;;5.10;4.20;;;13.10;44.50;;;;;;4987946;28;20890;-53
2022/09/11 02:47:55;;;;;;;5.13;4.63;;;13.20;40.00;;;;;;4992011;28;20729;-53
2022/09/11 02:50:28;;;;;;;6.53;5.83;;;13.20;36.20;;;;;;4985848;28;20974;-53
2022/09/11 02:53:03;;;;;;;11.03;4.90;;;13.20;33.20;;;;;;4993551;28;20548;-52
2022/09/11 02:55:41;;;;;;;7.50;5.90;;;13.30;31.00;;;;;;4981362;28;20521;-52
2022/09/11 02:58:14;;;;;;;5.60;5.00;;;13.20;28.90;;;;;;4986959;28;21027;-52
2022/09/11 03:00:41;;;;;;;6.20;5.53;;;13.30;27.10;;;;;;4993039;28;21012;-53
2022/09/11 03:03:09;;;;;;;8.50;7.60;;;13.30;25.20;;;;;;4991251;28;20550;-54
2022/09/11 03:05:36;;;;;;;7.13;6.43;;;13.30;26.40;;;;;;4988989;28;20460;-54
2022/09/11 03:08:03;;;;;;;7.93;7.20;;;13.30;24.00;;;;;;4994845;28;20457;-53
2022/09/11 03:10:30;;;;;;;8.83;7.70;;;13.30;22.80;;;;;;4994402;28;20460;-54
2022/09/11 03:12:58;;;;;;;12.20;7.40;;;13.30;77.40;;;;;;4993718;28;20477;-53
2022/09/11 03:15:25;;;;;;;8.93;8.17;;;13.30;78.00;;;;;;4986111;28;20492;-53
2022/09/11 03:17:51;;;;;;;8.53;7.67;;;13.30;81.50;;;;;;4990785;28;20530;-53
2022/09/11 03:20:20;;;;;;;8.23;7.33;;;13.30;86.00;;;;;;4990360;28;20469;-53
2022/09/11 03:22:47;;;;;;;8.63;7.70;;;13.30;99.90;;;;;;4989711;28;20480;-53
2022/09/11 03:25:14;;;;;;;11.33;7.77;;;13.30;99.90;;;;;;4982744;28;20465;-53
2022/09/11 03:27:41;;;;;;;8.87;7.50;;;13.30;99.90;;;;;;4992686;28;20495;-53
2022/09/11 03:30:09;;;;;;;8.90;8.00;;;13.30;99.90;;;;;;4977606;28;20469;-53
2022/09/11 03:32:36;;;;;;;10.57;7.80;;;13.30;99.90;;;;;;4989170;28;20578;-52
2022/09/11 03:35:02;;;;;;;8.47;7.60;;;13.40;99.90;;;;;;4985454;28;20511;-54
2022/09/11 03:37:30;;;;;;;9.40;7.70;;;13.30;99.90;;;;;;4992059;28;20460;-53
2022/09/11 03:39:57;;;;;;;8.70;7.80;;;13.40;99.90;;;;;;4987650;28;20452;-52
2022/09/11 03:42:23;;;;;;;9.67;8.67;;;13.40;99.90;;;;;;4993513;28;20488;-53
2022/09/11 03:44:50;;;;;;;11.30;9.37;;;13.40;99.90;;;;;;4988947;28;20460;-53
2022/09/11 03:47:16;;;;;;;11.27;9.80;;;13.40;99.90;;;;;;4991826;28;20465;-53
2022/09/11 03:49:43;;;;;;;16.90;9.77;;;13.40;99.90;;;;;;4989634;28;20484;-51
2022/09/11 03:52:10;;;;;;;10.20;8.90;;;13.50;99.90;;;;;;4989593;28;20476;-54
2022/09/11 03:54:38;;;;;;;11.17;9.83;;;13.50;99.90;;;;;;4986460;28;20592;-53
2022/09/11 03:57:05;;;;;;;13.83;10.77;;;13.50;99.90;;;;;;4990155;28;20471;-53
2022/09/11 03:59:32;;;;;;;13.70;10.50;;;13.50;99.90;;;;;;4991956;28;20571;-53
2022/09/11 04:01:59;;;;;;;14.20;10.80;;;13.50;99.90;;;;;;4982311;28;20476;-52
2022/09/11 04:04:25;;;;;;;14.93;11.10;;;13.50;99.90;;;;;;4988827;28;20465;-54
2022/09/11 04:06:52;;;;;;;14.50;11.10;;;13.60;99.90;;;;;;4988208;28;20527;-52
2022/09/11 04:09:19;;;;;;;15.67;11.27;;;13.60;99.90;;;;;;4990077;28;20954;-53
2022/09/11 04:11:47;;;;;;;20.27;12.30;;;13.70;99.90;;;;;;4992127;28;20526;-52
2022/09/11 04:14:13;;;;;;;15.13;11.60;;;13.70;99.90;;;;;;4990514;28;20491;-54
2022/09/11 04:16:40;;;;;;;16.67;12.80;;;13.70;99.90;;;;;;4987459;28;20495;-53
2022/09/11 04:19:07;;;;;;;18.17;13.13;;;13.70;99.90;;;;;;4985925;28;20480;-53
2022/09/11 04:21:34;;;;;;;19.73;12.97;;;13.70;99.90;;;;;;4989818;28;21358;-54
2022/09/11 04:24:00;;;;;;;15.63;11.90;;;13.80;99.90;;;;;;4987444;28;20480;-54
2022/09/11 04:26:30;;;;;;;15.53;12.73;;;13.80;99.90;;;;;;4985891;28;20853;-52
2022/09/11 04:29:00;;;;;;;17.67;12.57;;;13.90;99.90;;;;;;4991463;28;20461;-52
2022/09/11 04:31:27;;;;;;;18.17;13.77;;;13.90;99.90;;;;;;4991232;28;20958;-53
2022/09/11 04:33:54;;;;;;;25.87;14.37;;;13.90;99.90;;;;;;4986490;28;20488;-54
2022/09/11 04:36:21;;;;;;;18.13;14.10;;;13.90;99.90;;;;;;4991888;28;20465;-52
2022/09/11 04:38:48;;;;;;;18.97;13.03;;;14.00;99.90;;;;;;4980691;28;20484;-52
2022/09/11 04:41:16;;;;;;;19.77;14.10;;;14.00;99.90;;;;;;4993072;28;20492;-54
2022/09/11 04:43:42;;;;;;;19.00;14.00;;;14.00;99.90;;;;;;4989392;28;20484;-53
2022/09/11 04:46:13;;;;;;;19.87;13.80;;;14.00;99.90;;;;;;4991891;28;20472;-52
2022/09/11 04:48:43;;;;;;;23.23;14.90;;;14.00;99.90;;;;;;4990970;28;20898;-54
2022/09/11 04:51:10;;;;;;;22.20;15.20;;;14.00;99.90;;;;;;4990355;28;20468;-53
2022/09/11 04:53:37;;;;;;;20.93;14.30;;;14.00;99.90;;;;;;4988605;28;20535;-53
2022/09/11 04:56:06;;;;;;;22.37;15.40;;;14.10;99.90;;;;;;4986826;28;20465;-52
2022/09/11 04:58:32;;;;;;;23.03;16.30;;;14.00;99.90;;;;;;4989269;28;20487;-53
2022/09/11 05:00:59;;;;;;;24.70;15.60;;;14.00;99.90;;;;;;4992987;28;20533;-52
2022/09/11 05:03:28;;;;;;;21.57;15.00;;;14.10;99.90;;;;;;4996638;28;20864;-54
2022/09/11 05:05:55;;;;;;;18.93;14.27;;;14.10;99.90;;;;;;4990005;28;20962;-54
2022/09/11 05:08:24;;;;;;;29.10;15.83;;;14.10;99.90;;;;;;4991772;28;20460;-52
2022/09/11 05:10:51;;;;;;;22.07;14.90;;;14.10;99.90;;;;;;4991976;28;20472;-52
2022/09/11 05:13:18;;;;;;;25.63;15.60;;;14.10;99.90;;;;;;4987835;28;20487;-52
2022/09/11 05:15:45;;;;;;;24.47;16.07;;;14.10;99.90;;;;;;4990449;28;20465;-54
2022/09/11 05:18:12;;;;;;;23.77;16.07;;;14.10;99.90;;;;;;4990942;28;20465;-52
2022/09/11 05:20:40;;;;;;;26.10;15.53;;;14.10;99.90;;;;;;4988789;28;20460;-53
2022/09/11 05:23:07;;;;;;;22.13;15.60;;;14.10;99.90;;;;;;4987669;28;20963;-55
2022/09/11 05:25:35;;;;;;;20.20;15.17;;;14.10;99.90;;;;;;4990030;28;20597;-53
2022/09/11 05:28:02;;;;;;;22.80;15.53;;;14.10;99.90;;;;;;4991484;28;20460;-52
2022/09/11 05:30:29;;;;;;;22.37;15.70;;;14.10;99.90;;;;;;4988067;28;20467;-54
2022/09/11 05:32:55;;;;;;;24.77;17.13;;;14.10;99.90;;;;;;4986761;28;20482;-52
2022/09/11 05:35:24;;;;;;;25.30;15.07;;;14.10;99.90;;;;;;4989025;28;20523;-53
2022/09/11 05:37:52;;;;;;;24.00;15.67;;;14.10;99.90;;;;;;4991302;28;20464;-53
2022/09/11 05:40:18;;;;;;;23.70;15.67;;;14.20;99.90;;;;;;4990866;28;20484;-54
2022/09/11 05:42:45;;;;;;;23.57;15.13;;;14.20;99.90;;;;;;4974762;28;20485;-53
2022/09/11 05:45:11;;;;;;;20.90;14.23;;;14.20;99.90;;;;;;4976438;28;20465;-53
2022/09/11 05:47:38;;;;;;;24.57;15.87;;;14.20;99.90;;;;;;4995960;28;20537;-54
2022/09/11 05:50:06;;;;;;;20.97;15.67;;;14.20;99.90;;;;;;4994802;28;20504;-53
2022/09/11 05:52:33;;;;;;;24.80;16.90;;;14.20;99.90;;;;;;4986234;28;20487;-54
2022/09/11 05:55:01;;;;;;;21.47;15.20;;;14.30;99.90;;;;;;4988200;28;20543;-53
2022/09/11 05:57:28;;;;;;;30.00;16.40;;;14.30;99.90;;;;;;4989769;28;20469;-54
2022/09/11 05:59:54;;;;;;;25.30;17.00;;;14.30;99.90;;;;;;4991986;28;20902;-54
2022/09/11 06:02:21;;;;;;;21.47;15.97;;;14.40;99.90;;;;;;4988189;28;20942;-53
2022/09/11 06:04:47;;;;;;;28.23;15.63;;;14.30;99.90;;;;;;4987153;28;20549;-54
2022/09/11 06:07:14;;;;;;;23.37;16.60;;;14.40;99.90;;;;;;4992713;28;20436;-53
2022/09/11 06:09:41;;;;;;;23.40;16.67;;;14.40;99.90;;;;;;4991330;28;20468;-53
2022/09/11 06:12:11;;;;;;;23.23;16.10;;;14.50;99.90;;;;;;5002366;28;20502;-55
2022/09/11 06:14:37;;;;;;;23.43;14.80;;;14.50;99.90;;;;;;4981188;28;20843;-53
2022/09/11 06:17:05;;;;;;;22.17;15.10;;;14.50;99.90;;;;;;4987154;28;20886;-53
2022/09/11 06:19:31;;;;;;;20.00;15.63;;;14.50;99.90;;;;;;4989972;28;20869;-54
2022/09/11 06:21:58;;;;;;;25.03;16.17;;;14.60;99.90;;;;;;4990692;28;20472;-53
2022/09/11 06:24:25;;;;;;;22.53;15.73;;;14.60;99.90;;;;;;4984723;28;20456;-54
2022/09/11 06:26:51;;;;;;;23.17;17.40;;;14.60;99.90;;;;;;4990167;28;20464;-53
2022/09/11 06:29:19;;;;;;;26.37;16.43;;;14.70;99.90;;;;;;4991125;28;20461;-53
2022/09/11 06:31:50;;;;;;;24.33;17.40;;;14.70;99.90;;;;;;4989762;28;20465;-53
2022/09/11 06:34:16;;;;;;;21.87;16.27;;;14.70;99.90;;;;;;4981928;28;20465;-54
2022/09/11 06:36:43;;;;;;;19.73;14.63;;;14.70;99.90;;;;;;4981804;28;20460;-53
2022/09/11 06:39:10;;;;;;;27.50;16.07;;;14.70;99.90;;;;;;4989424;28;20483;-52
2022/09/11 06:41:36;;;;;;;21.77;16.50;;;14.80;99.90;;;;;;4988227;28;20539;-53
2022/09/11 06:44:03;;;;;;;23.63;16.87;;;14.80;99.90;;;;;;4983031;28;20524;-54
2022/09/11 06:46:31;;;;;;;21.30;15.37;;;14.80;99.90;;;;;;4990723;28;20852;-53
2022/09/11 06:48:58;;;;;;;23.27;17.30;;;14.80;99.90;;;;;;4989629;28;20515;-52
2022/09/11 06:51:25;;;;;;;25.03;17.47;;;14.80;99.90;;;;;;4988104;28;20958;-54
2022/09/11 06:53:56;;;;;;;20.20;15.70;;;14.80;99.90;;;;;;4985169;28;20559;-52
2022/09/11 06:56:23;;;;;;;22.50;16.40;;;14.90;99.90;;;;;;4987927;28;20946;-54
2022/09/11 06:58:50;;;;;;;30.03;16.17;;;14.90;99.90;;;;;;4986712;28;20464;-54
2022/09/11 07:01:18;;;;;;;24.13;16.03;;;15.00;99.90;;;;;;4993193;28;20514;-53
2022/09/11 07:03:48;;;;;;;22.27;15.97;;;15.10;99.90;;;;;;4988581;28;20496;-51
2022/09/11 07:06:16;;;;;;;28.13;17.07;;;15.10;99.90;;;;;;4991867;28;20550;-52
2022/09/11 07:08:43;;;;;;;28.13;17.90;;;15.10;99.90;;;;;;4994313;28;20809;-52
2022/09/11 07:11:11;;;;;;;23.47;17.20;;;15.20;99.90;;;;;;4993930;28;20478;-52
2022/09/11 07:13:38;;;;;;;23.50;15.90;;;15.30;99.90;;;;;;4992544;28;20487;-53
2022/09/11 07:16:07;;;;;;;25.00;17.23;;;15.30;99.90;;;;;;4985278;28;20474;-53
2022/09/11 07:18:35;;;;;;;24.50;15.97;;;15.30;99.90;;;;;;4993179;28;20479;-53
2022/09/11 07:21:06;;;;;;;27.20;16.37;;;15.40;99.90;;;;;;4985058;28;20488;-50
2022/09/11 07:23:33;;;;;;;26.00;16.53;;;15.40;99.90;;;;;;4985299;28;20551;-53
2022/09/11 07:26:02;;;;;;;21.33;15.50;;;15.40;99.90;;;;;;4981931;28;22612;-53
2022/09/11 07:28:29;;;;;;;27.27;16.10;;;15.40;24.20;;;;;;4989194;28;20542;-53
2022/09/11 07:31:06;;;;;;;26.23;16.33;;;15.40;25.70;;;;;;4985652;28;20507;-51
2022/09/11 07:33:33;;;;;;;18.27;14.80;;;15.50;27.50;;;;;;4991400;28;20559;-53
2022/09/11 07:35:59;;;;;;;24.70;16.10;;;15.50;29.60;;;;;;4996808;28;20555;-52
2022/09/11 07:38:29;;;;;;;25.30;15.83;;;15.60;28.50;;;;;;4991569;28;20461;-52
2022/09/11 07:40:56;;;;;;;18.17;14.20;;;15.70;31.30;;;;;;4980620;28;21029;-52
2022/09/11 07:43:22;;;;;;;24.20;16.20;;;15.80;34.40;;;;;;4987754;28;20542;-53
2022/09/11 07:45:52;;;;;;;20.77;14.77;;;15.80;51.80;;;;;;4993874;28;20931;-54
2022/09/11 07:48:19;;;;;;;21.67;16.20;;;15.80;55.20;;;;;;4994066;28;20453;-53
2022/09/11 07:50:56;;;;;;;19.50;15.10;;;15.90;56.60;;;;;;4984139;28;20576;-52
2022/09/11 07:53:22;;;;;;;22.67;15.57;;;15.90;59.70;;;;;;4991310;28;21010;-53
2022/09/11 07:55:50;;;;;;;22.73;14.67;;;16.00;63.10;;;;;;4990342;28;20907;-52
2022/09/11 07:58:17;;;;;;;22.13;15.63;;;16.00;84.60;;;;;;4992547;28;20461;-52
2022/09/11 08:00:44;;;;;;;21.33;15.20;;;16.00;85.30;;;;;;5001157;28;20514;-53
2022/09/11 08:03:10;;;;;;;20.43;15.03;;;16.10;85.10;;;;;;4987902;28;20491;-52
2022/09/11 08:05:37;;;;;;;23.00;14.77;;;16.20;85.20;;;;;;4993989;28;20464;-53
2022/09/11 08:08:04;;;;;;;20.73;14.43;;;16.20;99.90;;;;;;4990035;28;20617;-51
2022/09/11 08:10:30;;;;;;;18.13;14.13;;;16.20;99.90;;;;;;4993797;28;20519;-53
2022/09/11 08:12:59;;;;;;;25.37;15.30;;;16.30;99.90;;;;;;4991086;28;20485;-52
2022/09/11 08:15:26;;;;;;;21.47;14.80;;;16.30;99.90;;;;;;4988473;28;20535;-52
2022/09/11 08:17:53;;;;;;;21.13;14.23;;;16.30;99.90;;;;;;4993610;28;20472;-52
2022/09/11 08:20:20;;;;;;;27.43;14.90;;;16.40;99.90;;;;;;4997383;28;20500;-52
2022/09/11 08:22:47;;;;;;;17.17;13.60;;;16.50;99.90;;;;;;4985912;28;20571;-52
2022/09/11 08:25:13;;;;;;;20.50;13.90;;;16.50;99.90;;;;;;4984076;28;20452;-51
2022/09/11 08:27:40;;;;;;;19.30;12.70;;;16.50;99.90;;;;;;4986593;28;20556;-51
2022/09/11 08:30:10;;;;;;;17.47;12.23;;;16.50;99.90;;;;;;4995395;28;20529;-52
2022/09/11 08:32:38;;;;;;;15.80;12.87;;;16.50;99.90;;;;;;4989397;28;20480;-52
2022/09/11 08:35:06;;;;;;;17.57;12.60;;;16.50;99.90;;;;;;5002667;28;20444;-51
2022/09/11 08:37:33;;;;;;;17.07;11.77;;;16.60;99.90;;;;;;4992208;28;20460;-53
2022/09/11 08:40:00;;;;;;;16.33;12.27;;;16.60;99.90;;;;;;4993113;28;20484;-53
2022/09/11 08:42:27;;;;;;;18.87;12.53;;;16.60;99.90;;;;;;4990893;28;20480;-53
2022/09/11 08:44:57;;;;;;;19.50;12.87;;;16.60;99.90;;;;;;4990849;28;20456;-52
2022/09/11 08:47:29;;;;;;;17.67;12.93;;;16.70;99.90;;;;;;4991665;28;20540;-53
2022/09/11 08:50:01;;;;;;;17.27;11.67;;;16.70;99.90;;;;;;4993353;28;20465;-51
2022/09/11 08:52:28;;;;;;;17.43;11.80;;;16.80;99.90;;;;;;4981340;28;20542;-52
2022/09/11 08:54:57;;;;;;;19.27;13.20;;;17.00;99.90;;;;;;4983068;28;20492;-53
2022/09/11 08:57:31;;;;;;;18.90;11.90;;;17.00;99.90;;;;;;4983775;28;20452;-52
2022/09/11 09:00:13;;;;;;;15.00;11.63;;;17.10;99.90;;;;;;4985659;28;20613;-52
2022/09/11 09:02:57;;;;;;;15.17;11.77;;;17.10;99.90;;;;;;4985422;28;20496;-51
2022/09/11 09:05:32;;;;;;;14.27;11.30;;;17.20;99.90;;;;;;4979730;28;20488;-52
2022/09/11 09:08:09;;;;;;;14.07;11.10;;;17.30;99.90;;;;;;4990346;28;20463;-52
2022/09/11 09:10:49;;;;;;;16.00;10.73;;;17.40;99.90;;;;;;4988061;28;20471;-53
2022/09/11 09:13:34;;;;;;;20.20;14.10;;;17.40;99.90;;;;;;4974994;28;20488;-51
2022/09/11 09:16:08;;;;;;;12.60;10.70;;;17.30;78.50;;;;;;4983588;28;20453;-52
2022/09/11 09:18:41;;;;;;;16.63;12.03;;;17.20;21.00;;;;;;4983276;28;20554;-53
2022/09/11 09:21:14;;;;;;;16.03;11.77;;;17.20;99.90;;;;;;4988165;28;20485;-54
2022/09/11 09:23:44;;;;;;;20.10;11.90;;;17.10;99.90;;;;;;4991018;28;20483;-52
2022/09/11 09:26:16;;;;;;;15.70;11.37;;;17.10;99.90;;;;;;4987627;28;20461;-52
2022/09/11 09:28:45;;;;;;;18.80;12.40;;;17.10;99.90;;;;;;4986902;28;20487;-52
2022/09/11 09:31:15;;;;;;;15.53;10.50;;;17.10;99.90;;;;;;4994383;28;20465;-52
2022/09/11 09:33:50;;;;;;;14.43;10.43;;;17.10;99.90;;;;;;4985134;28;20492;-53
2022/09/11 09:36:21;;;;;;;12.37;9.40;;;17.20;88.60;;;;;;4985389;28;20460;-52
2022/09/11 09:38:48;;;;;;;11.30;10.10;;;17.20;99.90;;;;;;4987108;28;20963;-52
2022/09/11 09:41:35;;;;;;;13.67;10.67;;;17.30;99.90;;;;;;4987744;28;20533;-52
2022/09/11 09:44:07;;;;;;;11.40;10.20;;;17.50;99.90;;;;;;4983623;28;20539;-51
2022/09/11 09:46:39;;;;;;;14.63;10.97;;;17.50;62.50;;;;;;4984880;28;20457;-53
2022/09/11 09:49:09;;;;;;;13.83;10.10;;;17.50;52.30;;;;;;4988407;28;20537;-52
2022/09/11 09:51:35;;;;;;;20.20;10.37;;;17.60;51.00;;;;;;4987352;28;20460;-51
2022/09/11 09:54:03;;;;;;;13.37;10.77;;;17.50;48.40;;;;;;4984637;28;20466;-51
2022/09/11 09:56:31;;;;;;;15.27;10.73;;;17.50;47.40;;;;;;4986478;28;20521;-53
2022/09/11 09:59:01;;;;;;;11.00;9.73;;;17.40;42.80;;;;;;4996004;28;20824;-53
2022/09/11 10:01:45;;;;;;;10.73;8.57;;;17.40;46.10;;;;;;4988261;28;20480;-53
2022/09/11 10:04:17;;;;;;;15.33;9.70;;;17.40;48.70;;;;;;4991693;28;20451;-51
2022/09/11 10:06:45;;;;;;;13.10;9.40;;;17.40;44.00;;;;;;4990150;28;20457;-52
2022/09/11 10:09:21;;;;;;;11.30;10.10;;;17.50;44.80;;;;;;4991728;28;20445;-52
2022/09/11 10:11:56;;;;;;;11.83;8.90;;;17.60;52.80;;;;;;4981135;28;20540;-51
2022/09/11 10:14:24;;;;;;;9.27;7.80;;;17.70;58.90;;;;;;4995582;28;20480;-52
2022/09/11 10:16:52;;;;;;;10.60;7.73;;;17.70;68.40;;;;;;4988139;28;20464;-52
2022/09/11 10:22:32;;;;;;;14.90;9.30;;;17.70;67.30;;;;;;5100142;27;20558;-52
2022/09/11 10:25:10;;;;;;;12.63;8.67;;;17.60;78.80;;;;;;5074048;28;20461;-52
2022/09/11 10:27:44;;;;;;;9.80;7.93;;;17.60;72.30;;;;;;5090991;28;20455;-53
2022/09/11 10:30:26;;;;;;;10.10;7.73;;;17.50;66.00;;;;;;5075808;28;20910;-52
2022/09/11 10:32:54;;;;;;;11.70;8.43;;;17.50;53.50;;;;;;5086211;28;20517;-52
2022/09/11 10:35:21;;;;;;;10.10;8.13;;;17.50;55.40;;;;;;5086924;28;20452;-52
2022/09/11 10:38:02;;;;;;;10.40;8.20;;;17.50;51.40;;;;;;5077130;28;20456;-52
2022/09/11 10:40:29;;;;;;;12.33;8.57;;;17.50;50.50;;;;;;5077275;28;20537;-53
2022/09/11 10:42:56;;;;;;;9.40;8.40;;;17.50;42.10;;;;;;5084023;28;20541;-52
2022/09/11 10:45:24;;;;;;;9.00;8.10;;;17.50;39.00;;;;;;5082275;28;20506;-52
2022/09/11 10:47:50;;;;;;;12.57;8.70;;;17.70;32.20;;;;;;5078351;28;20456;-52
2022/09/11 10:50:24;;;;;;;9.97;8.17;;;18.00;27.80;;;;;;5088184;28;20440;-53
2022/09/11 10:53:05;;;;;;;10.17;9.17;;;18.30;33.00;;;;;;5083251;28;21219;-52
2022/09/11 10:55:36;;;;;;;8.23;7.33;;;18.50;37.30;;;;;;5081024;28;20474;-52
2022/09/11 10:58:07;;;;;;;8.97;7.90;;;18.60;77.80;;;;;;5084627;28;20523;-53
2022/09/11 11:00:34;;;;;;;9.90;8.40;;;18.70;80.30;;;;;;5076995;28;21048;-53
2022/09/11 11:03:06;;;;;;;8.67;7.50;;;19.00;89.40;;;;;;5077111;28;20491;-52
2022/09/11 11:05:41;;;;;;;7.23;6.63;;;19.20;99.90;;;;;;5078998;28;20464;-52
2022/09/11 11:08:39;;;;;;;7.00;6.30;;;19.40;99.90;;;;;;5079706;28;20535;-52
2022/09/11 11:11:23;;;;;;;10.00;6.00;;;19.40;99.90;;;;;;5073054;28;20457;-52
2022/09/11 11:14:25;;;;;;;9.10;5.60;;;19.50;99.90;;;;;;5077814;28;20920;-51
2022/09/11 11:17:04;;;;;;;6.50;5.60;;;19.50;99.90;;;;;;5078741;28;20456;-52
2022/09/11 11:19:51;;;;;;;5.63;5.00;;;19.50;99.90;;;;;;5075100;28;20459;-51
2022/09/11 11:22:33;;;;;;;5.50;4.77;;;19.40;99.90;;;;;;5071118;28;20484;-50
2022/09/11 11:25:10;;;;;;;5.57;4.80;;;19.30;99.90;;;;;;5071103;28;20547;-51
2022/09/11 11:27:54;;;;;;;4.67;4.27;;;19.20;99.90;;;;;;5076248;28;20453;-51
2022/09/11 11:30:23;;;;;;;7.43;5.00;;;19.20;99.90;;;;;;5073258;28;20460;-51
2022/09/11 11:33:09;;;;;;;4.90;3.90;;;19.30;99.90;;;;;;5065071;28;20473;-51
2022/09/11 11:35:43;;;;;;;6.27;4.50;;;19.40;99.90;;;;;;5064786;28;20501;-50
2022/09/11 11:38:18;;;;;;;4.50;4.10;;;19.40;99.90;;;;;;5059270;28;20469;-51
2022/09/11 11:40:52;;;;;;;4.70;4.30;;;19.60;99.90;;;;;;5065098;28;20539;-50
2022/09/11 11:43:24;;;;;;;5.60;5.10;;;19.60;99.90;;;;;;5060906;28;20602;-51
2022/09/11 11:45:55;;;;;;;4.70;4.20;;;19.60;99.90;;;;;;5060877;28;21624;-51
2022/09/11 11:48:28;;;;;;;5.53;5.00;;;19.40;99.90;;;;;;5060774;28;20457;-50
2022/09/11 11:50:58;;;;;;;4.87;4.47;;;19.30;99.90;;;;;;5061338;28;20846;-51
2022/09/11 11:53:30;;;;;;;4.90;4.53;;;19.00;99.90;;;;;;5061650;28;20476;-51
2022/09/11 11:56:13;;;;;;;5.20;4.57;;;18.90;99.90;;;;;;5063157;28;20458;-53
2022/09/11 11:58:47;;;;;;;5.77;4.90;;;18.70;99.90;;;;;;5061840;28;20865;-51
2022/09/11 12:01:21;;;;;;;6.27;5.00;;;18.60;99.90;;;;;;5057824;28;20564;-51
2022/09/11 12:03:52;;;;;;;5.30;4.77;;;18.40;99.90;;;;;;5058091;28;21033;-51
2022/09/11 12:06:19;;;;;;;6.83;4.53;;;18.30;99.90;;;;;;5062720;28;20484;-52
2022/09/11 12:08:46;;;;;;;5.63;5.13;;;18.20;98.30;;;;;;5061725;28;20958;-51
2022/09/11 12:11:18;;;;;;;7.60;5.77;;;18.20;88.60;;;;;;5063031;28;20962;-50
2022/09/11 12:13:47;;;;;;;7.40;5.33;;;18.20;87.20;;;;;;5067202;28;20569;-51
2022/09/11 12:16:18;;;;;;;4.77;4.30;;;18.30;92.60;;;;;;5058559;28;20500;-51
2022/09/11 12:19:03;;;;;;;14.83;4.00;;;18.30;99.90;;;;;;5064470;28;20482;-51
2022/09/11 12:21:41;;;;;;;5.57;5.00;;;18.30;99.90;;;;;;5061104;28;20484;-51
2022/09/11 12:24:20;;;;;;;5.23;4.77;;;18.30;99.90;;;;;;5055787;28;20514;-51
2022/09/11 12:27:27;;;;;;;6.87;5.30;;;18.30;99.90;;;;;;5053645;28;20465;-51
2022/09/11 12:29:56;;;;;;;9.00;5.17;;;18.30;99.90;;;;;;5061413;28;20466;-52
2022/09/11 12:32:39;;;;;;;5.00;4.50;;;18.30;99.90;;;;;;5059060;28;20539;-51
2022/09/11 12:35:18;;;;;;;5.67;4.20;;;18.30;99.90;;;;;;5060394;28;20464;-52
2022/09/11 12:37:47;;;;;;;4.77;4.23;;;18.20;99.90;;;;;;5059321;28;20456;-53
2022/09/11 12:40:19;;;;;;;4.53;4.13;;;18.20;99.90;;;;;;5059310;28;20456;-53
2022/09/11 12:42:56;;;;;;;5.97;5.37;;;18.20;1.40;;;;;;5059279;28;20486;-53
2022/09/11 12:45:35;;;;;;;5.77;4.83;;;18.20;99.90;;;;;;5061811;28;20457;-53
2022/09/11 12:48:07;;;;;;;5.70;5.10;;;18.20;99.90;;;;;;5061922;28;20466;-52
2022/09/11 12:50:34;;;;;;;4.87;4.47;;;18.20;99.90;;;;;;5062600;28;20503;-52
2022/09/11 12:53:03;;;;;;;6.80;4.93;;;18.20;99.90;;;;;;5059883;28;20862;-52
2022/09/11 12:55:33;;;;;;;5.03;4.50;;;18.10;99.90;;;;;;5059873;28;20475;-53